Impacts METAR Board
IDs:

KCLL - College Station/East, TX, US

Updated at: 1800 UTC 16 Oct 2021
Potential Impact None Slight Moderate High
Time 16/06Z 16/07Z 16/08Z 16/09Z 16/10Z 16/11Z 16/12Z 16/13Z 16/14Z 16/15Z 16/16Z 16/17Z 16/18Z
Temp66 64 62 62 60 58 56 56 61 66 69 71 73
Dewpt49 47 47 45 45 45 45 46 46 45 44 41 43
Altim30.20 30.22 30.21 30.23 30.25 30.26 30.29 30.31 30.33 30.35 30.35 30.34 30.32
VIS10 10 10 10 10 10 10 10 10 10 10 10 10
CIG-- -- -- -- -- -- -- -- -- -- -- -- --
CoverCLRCLRCLRCLRCLRCLRCLRCLRCLRCLRCLRCLRCLR
FltCatVFRVFRVFRVFRVFRVFRVFRVFRVFRVFRVFRVFRVFR
WX--------------------------
WDir360360360101010103501030203010
WSpd12 11 11 12 11 8 7 6 8 11 12 14 12
WGst-- -- -- 20 -- -- -- -- -- -- 19 -- --
Raw hourly METARs
KCLL 160553Z AUTO 36012KT 10SM CLR 19/09 A3020 RMK AO2 SLP222 T01890094 10250 20189 403170189 51027
KCLL 160653Z AUTO 36011KT 10SM CLR 18/08 A3022 RMK AO2 SLP228 T01780083
KCLL 160753Z AUTO 36011KT 10SM CLR 17/08 A3021 RMK AO2 SLP226 T01670083
KCLL 160853Z AUTO 01012G20KT 10SM CLR 17/07 A3023 RMK AO2 SLP232 T01670072 51009
KCLL 160953Z AUTO 01011KT 10SM CLR 16/07 A3025 RMK AO2 SLP241 T01560072
KCLL 161053Z AUTO 01008KT 10SM CLR 14/07 A3026 RMK AO2 SLP245 T01440072
KCLL 161153Z AUTO 01007KT 10SM CLR 13/07 A3029 RMK AO2 SLP253 70012 T01330072 10183 20133 52020
KCLL 161253Z 35006KT 10SM CLR 13/08 A3031 RMK AO2 SLP261 T01330078
KCLL 161353Z 01008KT 10SM CLR 16/08 A3033 RMK AO2 SLP268 T01610078
KCLL 161453Z 03011KT 10SM CLR 19/07 A3035 RMK AO2 SLP273 T01890072 51020
KCLL 161553Z 02012G19KT 10SM CLR 21/07 A3035 RMK AO2 SLP273 T02060067
KCLL 161653Z 03014KT 10SM CLR 22/05 A3034 RMK AO2 SLP270 T02170050
KCLL 161753Z 01012KT 10SM CLR 23/06 A3032 RMK AO2 SLP264 T02280061 10228 20122 58009